createdAt,value
2023-01-15T00:02:22.673Z,100.00
2023-01-15T00:04:51.807Z,100.00
2023-01-15T00:07:18.802Z,100.00
2023-01-15T00:09:45.690Z,100.00
2023-01-15T00:12:12.588Z,100.00
2023-01-15T00:14:39.516Z,100.00
2023-01-15T00:17:06.514Z,100.00
2023-01-15T00:19:33.399Z,100.00
2023-01-15T00:22:00.389Z,100.00
2023-01-15T00:24:46.351Z,100.00
2023-01-15T00:27:32.163Z,100.00
2023-01-15T00:29:59.105Z,100.00
2023-01-15T00:32:27.838Z,100.00
2023-01-15T00:34:54.878Z,100.00
2023-01-15T00:37:22.030Z,100.00
2023-01-15T00:39:48.982Z,100.00
2023-01-15T00:42:17.758Z,100.00
2023-01-15T00:44:44.790Z,100.00
2023-01-15T00:47:14.941Z,100.00
2023-01-15T00:49:42.886Z,100.00
2023-01-15T00:52:11.292Z,100.00
2023-01-15T00:54:38.316Z,100.00
2023-01-15T00:57:06.436Z,100.00
2023-01-15T00:59:33.439Z,100.00
2023-01-15T01:02:00.637Z,100.00
2023-01-15T01:04:27.607Z,100.00
2023-01-15T01:06:54.589Z,100.00
2023-01-15T01:09:21.592Z,100.00
2023-01-15T01:11:50.160Z,100.00
2023-01-15T01:14:17.191Z,100.00
2023-01-15T01:16:44.295Z,100.00
2023-01-15T01:19:18.700Z,100.00
2023-01-15T01:21:47.268Z,100.00
2023-01-15T01:24:20.999Z,100.00
2023-01-15T01:26:49.295Z,100.00
2023-01-15T01:29:19.985Z,100.00
2023-01-15T01:31:47.632Z,100.00
2023-01-15T01:34:15.079Z,100.00
2023-01-15T01:36:43.909Z,100.00
2023-01-15T01:39:17.701Z,100.00
2023-01-15T01:41:46.673Z,100.00
2023-01-15T01:44:32.336Z,100.00
2023-01-15T01:47:10.296Z,100.00
2023-01-15T01:49:40.218Z,100.00
2023-01-15T01:52:14.049Z,100.00
2023-01-15T01:54:42.710Z,100.00
2023-01-15T01:57:10.183Z,100.00
2023-01-15T01:59:38.297Z,100.00
2023-01-15T02:02:06.195Z,100.00
2023-01-15T02:04:34.109Z,100.00
2023-01-15T02:07:02.696Z,100.00
2023-01-15T02:09:29.697Z,100.00
2023-01-15T02:12:03.156Z,100.00
2023-01-15T02:14:48.464Z,100.00
2023-01-15T02:17:32.947Z,100.00
2023-01-15T02:20:18.480Z,100.00
2023-01-15T02:23:26.300Z,100.00
2023-01-15T02:26:18.020Z,100.00
2023-01-15T02:28:48.687Z,100.00
2023-01-15T02:31:37.072Z,100.00
2023-01-15T02:34:16.692Z,100.00
2023-01-15T02:36:50.591Z,100.00
2023-01-15T02:39:19.952Z,100.00
2023-01-15T02:41:51.970Z,100.00
2023-01-15T02:44:22.629Z,100.00
2023-01-15T02:46:50.443Z,100.00
2023-01-15T02:49:20.990Z,100.00
2023-01-15T02:52:18.404Z,100.00
2023-01-15T02:55:00.904Z,100.00
2023-01-15T02:57:30.960Z,100.00
2023-01-15T03:00:05.180Z,100.00
2023-01-15T03:03:07.761Z,100.00
2023-01-15T03:05:51.254Z,100.00
2023-01-15T03:08:18.276Z,100.00
2023-01-15T03:10:57.057Z,100.00
2023-01-15T03:13:55.519Z,100.00
2023-01-15T03:16:39.338Z,100.00
2023-01-15T03:19:26.144Z,100.00
2023-01-15T03:22:26.733Z,100.00
2023-01-15T03:25:01.395Z,100.00
2023-01-15T03:27:28.859Z,100.00
2023-01-15T03:30:06.614Z,100.00
2023-01-15T03:32:33.968Z,100.00
2023-01-15T03:35:03.696Z,100.00
2023-01-15T03:37:31.767Z,100.00
2023-01-15T03:40:00.345Z,100.00
2023-01-15T03:43:20.620Z,100.00
2023-01-15T03:45:50.465Z,100.00
2023-01-15T03:48:35.408Z,100.00
2023-01-15T03:51:20.559Z,100.00
2023-01-15T03:53:56.108Z,100.00
2023-01-15T03:56:40.871Z,100.00
2023-01-15T03:59:23.407Z,100.00
2023-01-15T04:01:53.219Z,100.00
2023-01-15T04:04:21.864Z,100.00
2023-01-15T04:06:50.044Z,100.00
2023-01-15T04:09:17.802Z,100.00
2023-01-15T04:11:44.721Z,100.00
2023-01-15T04:14:14.694Z,100.00
2023-01-15T04:16:41.936Z,100.00
2023-01-15T04:19:08.965Z,100.00
2023-01-15T04:21:35.930Z,100.00
2023-01-15T04:24:02.860Z,100.00
2023-01-15T04:26:29.837Z,100.00
2023-01-15T04:28:57.014Z,100.00
2023-01-15T04:31:27.913Z,100.00
2023-01-15T04:33:54.969Z,100.00
2023-01-15T04:36:21.867Z,100.00
2023-01-15T04:38:48.752Z,100.00
2023-01-15T04:41:34.109Z,100.00
2023-01-15T04:44:09.364Z,100.00
2023-01-15T04:46:55.750Z,100.00
2023-01-15T04:49:23.760Z,100.00
2023-01-15T04:51:50.631Z,100.00
2023-01-15T04:54:19.171Z,100.00
2023-01-15T04:56:53.102Z,100.00
2023-01-15T04:59:24.690Z,100.00
2023-01-15T05:02:03.259Z,100.00
2023-01-15T05:04:33.472Z,100.00
2023-01-15T05:07:03.374Z,100.00
2023-01-15T05:09:30.892Z,100.00
2023-01-15T05:11:59.013Z,100.00
2023-01-15T05:14:25.917Z,100.00
2023-01-15T05:16:52.863Z,100.00
2023-01-15T05:19:19.817Z,100.00
2023-01-15T05:21:46.849Z,100.00
2023-01-15T05:24:16.756Z,100.00
2023-01-15T05:26:45.171Z,100.00
2023-01-15T05:29:13.883Z,100.00
2023-01-15T05:31:42.657Z,100.00
2023-01-15T05:34:11.085Z,100.00
2023-01-15T05:36:38.076Z,100.00
2023-01-15T05:39:05.470Z,100.00
2023-01-15T05:41:51.182Z,100.00
2023-01-15T05:44:22.649Z,100.00
2023-01-15T05:46:52.142Z,100.00
2023-01-15T05:49:23.364Z,100.00
2023-01-15T05:51:51.975Z,100.00
2023-01-15T05:54:25.702Z,100.00
2023-01-15T05:56:53.641Z,100.00
2023-01-15T05:59:23.690Z,100.00
2023-01-15T06:01:51.310Z,100.00
2023-01-15T06:04:21.286Z,100.00
2023-01-15T06:06:50.642Z,100.00
2023-01-15T06:09:18.981Z,100.00
2023-01-15T06:11:47.408Z,100.00
2023-01-15T06:14:15.193Z,100.00
2023-01-15T06:16:42.433Z,100.00
2023-01-15T06:19:11.866Z,100.00
2023-01-15T06:21:39.367Z,100.00
2023-01-15T06:24:07.660Z,100.00
2023-01-15T06:26:34.770Z,100.00
2023-01-15T06:29:01.714Z,100.00
2023-01-15T06:31:28.767Z,100.00
2023-01-15T06:33:56.519Z,100.00
2023-01-15T06:36:27.135Z,100.00
2023-01-15T06:38:54.776Z,100.00
2023-01-15T06:41:44.354Z,100.00
2023-01-15T06:44:35.972Z,100.00
2023-01-15T06:47:24.961Z,100.00
2023-01-15T06:49:57.943Z,100.00
2023-01-15T06:52:27.650Z,100.00
2023-01-15T06:54:54.813Z,100.00
2023-01-15T06:57:22.302Z,100.00
2023-01-15T06:59:50.440Z,100.00
2023-01-15T07:02:18.353Z,100.00
2023-01-15T07:04:46.493Z,100.00
2023-01-15T07:07:15.402Z,100.00
2023-01-15T07:09:42.443Z,100.00
2023-01-15T07:12:09.303Z,100.00
2023-01-15T07:14:36.815Z,100.00
2023-01-15T07:17:03.768Z,100.00
2023-01-15T07:19:30.789Z,100.00
2023-01-15T07:21:57.979Z,100.00
2023-01-15T07:24:25.025Z,100.00
2023-01-15T07:26:52.962Z,100.00
2023-01-15T07:29:21.605Z,100.00
2023-01-15T07:31:48.893Z,100.00
2023-01-15T07:34:16.147Z,100.00
2023-01-15T07:36:44.228Z,100.00
2023-01-15T07:39:12.390Z,100.00
2023-01-15T07:41:58.194Z,100.00
2023-01-15T07:44:43.879Z,100.00
2023-01-15T07:47:38.673Z,100.00
2023-01-15T07:50:12.346Z,100.00
2023-01-15T07:52:39.281Z,100.00
2023-01-15T07:55:08.593Z,100.00
2023-01-15T07:57:36.719Z,100.00
2023-01-15T08:00:06.709Z,100.00
2023-01-15T08:02:33.608Z,100.00
2023-01-15T08:05:00.512Z,100.00
2023-01-15T08:07:27.779Z,100.00
2023-01-15T08:09:54.874Z,100.00
2023-01-15T08:12:40.164Z,100.00
2023-01-15T08:15:16.596Z,100.00
2023-01-15T08:17:49.682Z,100.00
2023-01-15T08:20:26.078Z,100.00
2023-01-15T08:22:53.338Z,100.00
2023-01-15T08:25:26.051Z,100.00
2023-01-15T08:27:54.257Z,100.00
2023-01-15T08:30:24.814Z,100.00
2023-01-15T08:32:52.964Z,100.00
2023-01-15T08:35:20.009Z,100.00
2023-01-15T08:37:46.951Z,100.00
2023-01-15T08:40:14.032Z,100.00
2023-01-15T08:42:42.461Z,100.00
2023-01-15T08:45:11.141Z,100.00
2023-01-15T08:47:38.261Z,100.00
2023-01-15T08:50:08.743Z,100.00
2023-01-15T08:52:36.213Z,100.00
2023-01-15T08:55:03.486Z,100.00
2023-01-15T08:57:30.426Z,100.00
2023-01-15T08:59:57.369Z,100.00
2023-01-15T09:02:24.357Z,100.00
2023-01-15T09:04:52.669Z,100.00
2023-01-15T09:07:19.688Z,100.00
2023-01-15T09:09:46.587Z,100.00
2023-01-15T09:12:14.201Z,100.00
2023-01-15T09:15:00.400Z,100.00
2023-01-15T09:17:28.459Z,100.00
2023-01-15T09:19:55.371Z,100.00
2023-01-15T09:22:22.324Z,100.00
2023-01-15T09:24:49.217Z,100.00
2023-01-15T09:27:16.217Z,100.00
2023-01-15T09:29:43.149Z,100.00
2023-01-15T09:32:10.592Z,100.00
2023-01-15T09:34:37.539Z,100.00
2023-01-15T09:37:04.502Z,100.00
2023-01-15T09:39:31.623Z,100.00
2023-01-15T09:42:47.067Z,100.00
2023-01-15T09:45:26.609Z,100.00
2023-01-15T09:48:20.396Z,100.00
2023-01-15T09:51:16.836Z,100.00
2023-01-15T09:53:55.690Z,100.00
2023-01-15T09:56:33.325Z,100.00
2023-01-15T09:59:06.785Z,100.00
2023-01-15T10:01:34.817Z,100.00
2023-01-15T10:04:35.952Z,100.00
2023-01-15T10:07:18.355Z,100.00
2023-01-15T10:09:53.844Z,100.00
2023-01-15T10:12:37.025Z,100.00
2023-01-15T10:15:06.918Z,100.00
2023-01-15T10:17:45.386Z,100.00
2023-01-15T10:20:32.437Z,100.00
2023-01-15T10:23:25.667Z,100.00
2023-01-15T10:26:03.749Z,100.00
2023-01-15T10:29:17.386Z,100.00
2023-01-15T10:32:12.022Z,100.00
2023-01-15T10:35:01.075Z,100.00
2023-01-15T10:37:42.184Z,100.00
2023-01-15T10:40:43.471Z,100.00
2023-01-15T10:43:57.041Z,98.99
2023-01-15T10:46:38.154Z,99.44
2023-01-15T10:49:17.270Z,98.29
2023-01-15T10:51:47.755Z,97.28
2023-01-15T10:54:36.399Z,96.87
2023-01-15T10:57:18.996Z,97.78
2023-01-15T10:59:58.671Z,96.78
2023-01-15T11:02:38.317Z,97.25
2023-01-15T11:05:05.956Z,97.23
2023-01-15T11:08:13.860Z,96.85
2023-01-15T11:10:34.022Z,96.77
2023-01-15T11:13:48.892Z,99.61
2023-01-15T11:16:44.326Z,98.47
2023-01-15T11:19:37.581Z,100.00
2023-01-15T11:22:17.938Z,100.00
2023-01-15T11:24:50.602Z,100.00
2023-01-15T11:27:24.738Z,100.00
2023-01-15T11:29:58.525Z,100.00
2023-01-15T11:32:36.240Z,100.00
2023-01-15T11:35:19.154Z,100.00
2023-01-15T11:37:46.065Z,100.00
2023-01-15T11:40:25.691Z,100.00
2023-01-15T11:43:11.515Z,100.00
2023-01-15T11:46:12.046Z,100.00
2023-01-15T11:49:06.582Z,100.00
2023-01-15T11:51:46.440Z,100.00
2023-01-15T11:54:16.298Z,100.00
2023-01-15T11:56:45.996Z,100.00
2023-01-15T11:59:17.655Z,100.00
2023-01-15T12:02:04.064Z,100.00
2023-01-15T12:04:55.153Z,100.00
2023-01-15T12:07:24.795Z,100.00
2023-01-15T12:10:14.489Z,100.00
2023-01-15T12:13:18.291Z,100.00
2023-01-15T12:16:14.766Z,100.00
2023-01-15T12:19:06.124Z,100.00
2023-01-15T12:21:56.754Z,100.00
2023-01-15T12:24:38.689Z,100.00
2023-01-15T12:27:23.580Z,100.00
2023-01-15T12:30:00.713Z,99.82
2023-01-15T12:32:39.553Z,99.34
2023-01-15T12:35:21.274Z,98.09
2023-01-15T12:37:54.349Z,98.22
2023-01-15T12:40:30.513Z,99.28
2023-01-15T12:43:16.307Z,98.80
2023-01-15T12:45:50.168Z,97.72
2023-01-15T12:48:38.427Z,96.95
2023-01-15T12:51:08.817Z,97.29
2023-01-15T12:53:49.731Z,97.62
2023-01-15T12:56:20.853Z,97.38
2023-01-15T12:59:21.245Z,97.57
2023-01-15T13:02:24.319Z,96.15
2023-01-15T13:05:16.445Z,95.41
2023-01-15T13:08:11.711Z,95.00
2023-01-15T13:10:41.779Z,94.64
2023-01-15T13:13:25.166Z,94.72
2023-01-15T13:16:04.202Z,93.90
2023-01-15T13:19:11.673Z,94.67
2023-01-15T13:21:40.479Z,94.72
2023-01-15T13:24:50.008Z,94.71
2023-01-15T13:28:09.936Z,94.63
2023-01-15T13:30:49.203Z,92.87
2023-01-15T13:33:16.075Z,93.10
2023-01-15T13:35:55.076Z,92.17
2023-01-15T13:38:27.298Z,91.11
2023-01-15T13:40:57.058Z,91.16
2023-01-15T13:43:39.303Z,91.78
2023-01-15T13:46:13.828Z,91.21
2023-01-15T13:48:49.814Z,91.79
2023-01-15T13:51:27.723Z,91.75
2023-01-15T13:53:56.659Z,91.58
2023-01-15T13:56:30.986Z,91.07
2023-01-15T13:59:01.330Z,90.95
2023-01-15T14:01:31.369Z,90.23
2023-01-15T14:04:12.192Z,90.22
2023-01-15T14:06:51.785Z,89.65
2023-01-15T14:09:24.503Z,89.62
2023-01-15T14:12:06.898Z,90.66
2023-01-15T14:15:17.966Z,91.37
2023-01-15T14:17:57.683Z,92.05
2023-01-15T14:20:46.215Z,96.23
2023-01-15T14:23:43.789Z,98.06
2023-01-15T14:26:24.944Z,97.78
2023-01-15T14:29:13.864Z,99.07
2023-01-15T14:32:25.033Z,99.23
2023-01-15T14:35:01.260Z,98.80
2023-01-15T14:37:52.175Z,97.49
2023-01-15T14:40:21.598Z,95.26
2023-01-15T14:43:04.643Z,94.90
2023-01-15T14:45:37.323Z,92.93
2023-01-15T14:48:28.705Z,93.02
2023-01-15T14:51:13.682Z,93.25
2023-01-15T14:53:57.582Z,92.94
2023-01-15T14:56:34.990Z,93.34
2023-01-15T14:59:22.180Z,93.61
2023-01-15T15:01:49.618Z,94.07
2023-01-15T15:04:45.356Z,94.87
2023-01-15T15:07:18.889Z,95.21
2023-01-15T15:09:49.138Z,94.13
2023-01-15T15:13:13.210Z,94.41
2023-01-15T15:16:11.837Z,94.00
2023-01-15T15:18:58.423Z,92.67
2023-01-15T15:21:47.067Z,92.39
2023-01-15T15:24:26.004Z,92.19
2023-01-15T15:26:53.030Z,92.01
2023-01-15T15:29:22.244Z,92.61
2023-01-15T15:31:57.171Z,92.16
2023-01-15T15:34:34.516Z,93.39
2023-01-15T15:37:28.179Z,92.75
2023-01-15T15:40:14.158Z,93.33
2023-01-15T15:43:30.494Z,93.20
2023-01-15T15:46:16.948Z,92.67
2023-01-15T15:48:53.407Z,93.75
2023-01-15T15:51:40.007Z,93.08
2023-01-15T15:54:28.444Z,92.96
2023-01-15T15:57:17.376Z,91.67
2023-01-15T15:59:53.075Z,91.01
2023-01-15T16:02:37.935Z,90.54
2023-01-15T16:05:22.480Z,89.24
2023-01-15T16:07:49.934Z,89.46
2023-01-15T16:10:32.293Z,87.98
2023-01-15T16:13:03.789Z,87.84
2023-01-15T16:15:36.572Z,86.91
2023-01-15T16:18:05.831Z,86.79
2023-01-15T16:20:33.505Z,86.76
2023-01-15T16:23:05.363Z,86.89
2023-01-15T16:25:40.318Z,86.33
2023-01-15T16:28:22.959Z,85.53
2023-01-15T16:30:57.404Z,85.97
2023-01-15T16:33:24.708Z,85.71
2023-01-15T16:35:59.858Z,85.45
2023-01-15T16:38:27.261Z,85.98
2023-01-15T16:40:54.349Z,85.84
2023-01-15T16:43:26.086Z,86.46
2023-01-15T16:45:56.003Z,86.56
2023-01-15T16:48:38.540Z,86.50
2023-01-15T16:51:27.194Z,86.74
2023-01-15T16:53:54.246Z,86.54
2023-01-15T16:56:53.480Z,87.23
2023-01-15T16:59:29.989Z,87.99
2023-01-15T17:02:20.322Z,89.06
2023-01-15T17:04:48.512Z,89.95
2023-01-15T17:07:18.428Z,90.70
2023-01-15T17:09:52.140Z,91.22
2023-01-15T17:12:39.621Z,91.48
2023-01-15T17:15:16.049Z,91.67
2023-01-15T17:17:48.477Z,91.52
2023-01-15T17:20:19.151Z,91.54
2023-01-15T17:22:49.517Z,91.32
2023-01-15T17:25:33.381Z,91.59
2023-01-15T17:28:02.636Z,91.07
2023-01-15T17:30:31.636Z,91.56
2023-01-15T17:33:00.064Z,90.68
2023-01-15T17:35:37.220Z,90.31
2023-01-15T17:38:06.791Z,90.81
2023-01-15T17:40:33.917Z,90.44
2023-01-15T17:43:01.876Z,90.42
2023-01-15T17:45:32.366Z,90.29
2023-01-15T17:48:01.571Z,91.05
2023-01-15T17:50:28.939Z,90.38
2023-01-15T17:52:56.007Z,90.66
2023-01-15T17:55:42.321Z,90.32
2023-01-15T17:58:31.285Z,89.99
2023-01-15T18:01:17.800Z,90.30
2023-01-15T18:04:09.561Z,90.41
2023-01-15T18:06:37.214Z,90.12
2023-01-15T18:09:07.410Z,89.82
2023-01-15T18:11:34.382Z,90.14
2023-01-15T18:14:01.367Z,89.61
2023-01-15T18:16:28.848Z,89.60
2023-01-15T18:18:56.175Z,89.38
2023-01-15T18:21:23.271Z,89.96
2023-01-15T18:23:50.301Z,89.66
2023-01-15T18:26:17.160Z,89.36
2023-01-15T18:28:46.334Z,88.83
2023-01-15T18:31:13.348Z,88.95
2023-01-15T18:33:40.319Z,88.86
2023-01-15T18:36:11.558Z,89.00
2023-01-15T18:38:43.627Z,89.16
2023-01-15T18:41:51.851Z,88.64
2023-01-15T18:44:40.317Z,89.33
2023-01-15T18:47:12.272Z,89.36
2023-01-15T18:49:41.715Z,89.95
2023-01-15T18:52:29.319Z,89.49
2023-01-15T18:54:56.518Z,89.41
2023-01-15T18:57:24.281Z,89.43
2023-01-15T18:59:51.827Z,89.76
2023-01-15T19:02:21.059Z,89.50
2023-01-15T19:04:48.862Z,89.63
2023-01-15T19:07:16.391Z,89.34
2023-01-15T19:09:43.340Z,89.46
2023-01-15T19:12:11.968Z,88.90
2023-01-15T19:14:57.343Z,88.01
2023-01-15T19:17:44.401Z,88.48
2023-01-15T19:20:14.355Z,88.42
2023-01-15T19:22:59.168Z,88.37
2023-01-15T19:25:38.129Z,88.66
2023-01-15T19:28:07.915Z,87.92
2023-01-15T19:30:38.772Z,87.31
2023-01-15T19:33:07.263Z,86.85
2023-01-15T19:35:35.662Z,86.56
2023-01-15T19:38:03.449Z,86.73
2023-01-15T19:40:32.668Z,87.12
2023-01-15T19:43:17.860Z,86.14
2023-01-15T19:46:04.201Z,86.29
2023-01-15T19:48:56.468Z,85.66
2023-01-15T19:51:23.402Z,86.48
2023-01-15T19:53:50.314Z,85.89
2023-01-15T19:56:17.407Z,85.87
2023-01-15T19:58:44.448Z,85.22
2023-01-15T20:01:18.034Z,85.73
2023-01-15T20:03:46.612Z,85.84
2023-01-15T20:06:13.718Z,85.48
2023-01-15T20:08:40.606Z,84.72
2023-01-15T20:11:09.652Z,84.82
2023-01-15T20:13:54.387Z,84.96
2023-01-15T20:16:22.651Z,85.16
2023-01-15T20:18:51.037Z,84.78
2023-01-15T20:21:18.660Z,85.00
2023-01-15T20:23:45.727Z,85.05
2023-01-15T20:26:15.015Z,84.39
2023-01-15T20:28:43.059Z,85.20
2023-01-15T20:31:18.776Z,85.01
2023-01-15T20:33:46.712Z,85.38
2023-01-15T20:36:14.056Z,86.22
2023-01-15T20:38:40.994Z,85.69
2023-01-15T20:41:30.405Z,86.00
2023-01-15T20:44:15.788Z,86.32
2023-01-15T20:46:42.877Z,86.33
2023-01-15T20:49:26.935Z,86.85
2023-01-15T20:51:55.025Z,86.87
2023-01-15T20:54:23.152Z,87.33
2023-01-15T20:56:50.040Z,87.70
2023-01-15T20:59:17.027Z,87.71
2023-01-15T21:01:44.092Z,87.93
2023-01-15T21:04:13.535Z,88.48
2023-01-15T21:06:40.559Z,88.32
2023-01-15T21:09:07.520Z,90.09
2023-01-15T21:11:34.744Z,91.20
2023-01-15T21:14:01.896Z,91.36
2023-01-15T21:16:28.833Z,92.18
2023-01-15T21:18:56.312Z,90.93
2023-01-15T21:21:23.250Z,92.01
2023-01-15T21:23:50.346Z,91.99
2023-01-15T21:26:17.658Z,92.01
2023-01-15T21:28:44.751Z,92.03
2023-01-15T21:31:13.288Z,92.88
2023-01-15T21:33:40.429Z,92.50
2023-01-15T21:36:09.606Z,91.97
2023-01-15T21:38:36.585Z,91.71
2023-01-15T21:41:14.418Z,92.51
2023-01-15T21:44:01.729Z,92.21
2023-01-15T21:46:29.416Z,92.23
2023-01-15T21:48:58.269Z,91.70
2023-01-15T21:51:26.715Z,91.70
2023-01-15T21:53:53.816Z,91.53
2023-01-15T21:56:20.836Z,91.45
2023-01-15T21:58:47.908Z,90.88
2023-01-15T22:01:18.219Z,90.67
2023-01-15T22:03:46.092Z,90.46
2023-01-15T22:06:13.435Z,90.13
2023-01-15T22:08:40.458Z,89.87
2023-01-15T22:11:10.121Z,89.67
2023-01-15T22:13:38.300Z,89.51
2023-01-15T22:16:05.888Z,90.08
2023-01-15T22:18:34.079Z,89.63
2023-01-15T22:21:07.091Z,89.49
2023-01-15T22:23:34.946Z,89.87
2023-01-15T22:26:02.251Z,89.55
2023-01-15T22:28:29.149Z,88.22
2023-01-15T22:30:56.147Z,89.15
2023-01-15T22:33:23.557Z,88.52
2023-01-15T22:35:58.795Z,88.35
2023-01-15T22:38:26.293Z,88.64
2023-01-15T22:40:53.454Z,88.79
2023-01-15T22:43:20.589Z,88.36
2023-01-15T22:45:47.619Z,88.42
2023-01-15T22:48:14.573Z,88.74
2023-01-15T22:50:41.584Z,88.73
2023-01-15T22:53:08.491Z,88.03
2023-01-15T22:55:36.334Z,87.79
2023-01-15T22:58:03.235Z,87.94
2023-01-15T23:00:30.169Z,87.78
2023-01-15T23:03:05.014Z,86.66
2023-01-15T23:05:37.217Z,87.29
2023-01-15T23:08:04.169Z,86.81
2023-01-15T23:10:31.156Z,87.29
2023-01-15T23:12:58.066Z,87.00
2023-01-15T23:15:25.071Z,87.18
2023-01-15T23:17:51.994Z,86.57
2023-01-15T23:20:18.937Z,87.16
2023-01-15T23:22:45.830Z,87.74
2023-01-15T23:25:12.813Z,88.34
2023-01-15T23:27:39.840Z,88.67
2023-01-15T23:30:07.849Z,88.18
2023-01-15T23:32:34.930Z,88.57
2023-01-15T23:35:01.839Z,88.77
2023-01-15T23:37:28.741Z,89.07
2023-01-15T23:39:55.749Z,88.55
2023-01-15T23:42:44.574Z,89.74
2023-01-15T23:45:37.666Z,89.37
2023-01-15T23:48:05.560Z,90.37
2023-01-15T23:50:32.539Z,89.84
2023-01-15T23:52:59.462Z,89.95
2023-01-15T23:55:26.457Z,89.92
2023-01-15T23:57:53.408Z,89.88
